sensor_id;sensor_type;location;lat;lon;timestamp;pressure;altitude;pressure_sealevel;temperature;humidity
49943;BME280;36011;53.362;58.948;2023-01-28T00:00:43;97210.84;;;-7.01;54.56
49943;BME280;36011;53.362;58.948;2023-01-28T00:03:50;97208.47;;;-6.80;53.98
49943;BME280;36011;53.362;58.948;2023-01-28T00:06:53;97201.66;;;-6.81;53.70
49943;BME280;36011;53.362;58.948;2023-01-28T00:09:57;97209.34;;;-6.78;53.40
49943;BME280;36011;53.362;58.948;2023-01-28T00:13:00;97197.53;;;-6.60;53.01
49943;BME280;36011;53.362;58.948;2023-01-28T00:16:05;97196.69;;;-6.61;52.40
49943;BME280;36011;53.362;58.948;2023-01-28T00:19:09;97178.00;;;-6.49;51.65
49943;BME280;36011;53.362;58.948;2023-01-28T00:22:13;97188.19;;;-6.55;51.84
49943;BME280;36011;53.362;58.948;2023-01-28T00:25:16;97186.44;;;-6.64;51.58
49943;BME280;36011;53.362;58.948;2023-01-28T00:28:21;97181.50;;;-6.36;51.27
49943;BME280;36011;53.362;58.948;2023-01-28T00:31:24;97176.16;;;-6.68;51.39
49943;BME280;36011;53.362;58.948;2023-01-28T00:34:31;97200.06;;;-6.63;51.93
49943;BME280;36011;53.362;58.948;2023-01-28T00:37:34;97159.25;;;-6.48;51.37
49943;BME280;36011;53.362;58.948;2023-01-28T00:40:39;97165.09;;;-6.64;51.83
49943;BME280;36011;53.362;58.948;2023-01-28T00:43:43;97163.44;;;-6.59;51.73
49943;BME280;36011;53.362;58.948;2023-01-28T00:46:46;97167.75;;;-6.49;51.17
49943;BME280;36011;53.362;58.948;2023-01-28T00:49:50;97137.88;;;-6.53;50.84
49943;BME280;36011;53.362;58.948;2023-01-28T00:52:54;97152.38;;;-6.52;50.88
49943;BME280;36011;53.362;58.948;2023-01-28T00:55:56;97161.81;;;-6.46;50.35
49943;BME280;36011;53.362;58.948;2023-01-28T00:59:00;97146.47;;;-6.42;50.75
49943;BME280;36011;53.362;58.948;2023-01-28T01:02:03;97155.75;;;-6.62;50.46
49943;BME280;36011;53.362;58.948;2023-01-28T01:05:13;97154.03;;;-6.60;51.14
49943;BME280;36011;53.362;58.948;2023-01-28T01:08:16;97153.13;;;-6.68;50.92
49943;BME280;36011;53.362;58.948;2023-01-28T01:11:19;97150.63;;;-6.62;51.67
49943;BME280;36011;53.362;58.948;2023-01-28T01:14:23;97150.44;;;-6.84;51.30
49943;BME280;36011;53.362;58.948;2023-01-28T01:17:29;97153.72;;;-7.00;52.19
49943;BME280;36011;53.362;58.948;2023-01-28T01:20:32;97141.88;;;-6.89;51.78
49943;BME280;36011;53.362;58.948;2023-01-28T01:23:35;97128.25;;;-6.88;51.78
49943;BME280;36011;53.362;58.948;2023-01-28T01:26:38;97134.94;;;-7.04;52.14
49943;BME280;36011;53.362;58.948;2023-01-28T01:29:41;97111.22;;;-6.87;52.25
49943;BME280;36011;53.362;58.948;2023-01-28T01:32:44;97117.91;;;-7.05;52.20
49943;BME280;36011;53.362;58.948;2023-01-28T01:35:51;97122.19;;;-7.01;52.35
49943;BME280;36011;53.362;58.948;2023-01-28T01:38:56;97099.91;;;-7.15;52.75
49943;BME280;36011;53.362;58.948;2023-01-28T01:42:00;97110.97;;;-7.13;52.74
49943;BME280;36011;53.362;58.948;2023-01-28T01:45:10;97106.69;;;-7.20;53.49
49943;BME280;36011;53.362;58.948;2023-01-28T01:48:20;97098.22;;;-7.12;53.13
49943;BME280;36011;53.362;58.948;2023-01-28T01:51:26;97107.53;;;-7.20;53.04
49943;BME280;36011;53.362;58.948;2023-01-28T01:54:31;97112.53;;;-7.31;53.38
49943;BME280;36011;53.362;58.948;2023-01-28T01:57:35;97111.72;;;-7.28;53.73
49943;BME280;36011;53.362;58.948;2023-01-28T02:00:41;97104.03;;;-7.33;54.25
49943;BME280;36011;53.362;58.948;2023-01-28T02:07:05;97091.25;;;-7.31;53.87
49943;BME280;36011;53.362;58.948;2023-01-28T02:10:11;97087.06;;;-7.23;53.60
49943;BME280;36011;53.362;58.948;2023-01-28T02:13:14;97087.91;;;-7.23;54.05
49943;BME280;36011;53.362;58.948;2023-01-28T02:16:19;97077.69;;;-7.24;53.92
49943;BME280;36011;53.362;58.948;2023-01-28T02:19:24;97084.69;;;-6.97;53.93
49943;BME280;36011;53.362;58.948;2023-01-28T02:31:52;97078.72;;;-6.99;54.06
49943;BME280;36011;53.362;58.948;2023-01-28T02:35:00;97075.22;;;-7.09;53.62
49943;BME280;36011;53.362;58.948;2023-01-28T02:38:11;97082.09;;;-7.00;53.44
49943;BME280;36011;53.362;58.948;2023-01-28T02:41:24;97093.16;;;-7.07;53.83
49943;BME280;36011;53.362;58.948;2023-01-28T02:44:28;97083.91;;;-6.87;53.93
49943;BME280;36011;53.362;58.948;2023-01-28T02:47:31;97082.03;;;-7.09;53.89
49943;BME280;36011;53.362;58.948;2023-01-28T02:53:58;97070.97;;;-7.05;54.00
49943;BME280;36011;53.362;58.948;2023-01-28T03:00:14;97069.31;;;-7.02;53.88
49943;BME280;36011;53.362;58.948;2023-01-28T03:03:23;97105.09;;;-7.06;53.75
49943;BME280;36011;53.362;58.948;2023-01-28T03:06:34;97098.28;;;-7.03;53.97
49943;BME280;36011;53.362;58.948;2023-01-28T03:09:41;97109.38;;;-7.01;53.95
49943;BME280;36011;53.362;58.948;2023-01-28T03:12:46;97079.47;;;-7.12;53.91
49943;BME280;36011;53.362;58.948;2023-01-28T03:16:08;97102.59;;;-6.94;53.86
49943;BME280;36011;53.362;58.948;2023-01-28T03:19:30;97092.38;;;-6.94;54.28
49943;BME280;36011;53.362;58.948;2023-01-28T03:22:52;97099.94;;;-7.08;54.13
49943;BME280;36011;53.362;58.948;2023-01-28T03:26:14;97080.47;;;-6.92;54.19
49943;BME280;36011;53.362;58.948;2023-01-28T03:29:36;97094.16;;;-6.87;53.63
49943;BME280;36011;53.362;58.948;2023-01-28T03:32:59;97083.03;;;-6.90;53.85
49943;BME280;36011;53.362;58.948;2023-01-28T03:36:21;97092.38;;;-6.94;54.60
49943;BME280;36011;53.362;58.948;2023-01-28T03:39:42;97078.69;;;-7.02;54.54
49943;BME280;36011;53.362;58.948;2023-01-28T03:42:45;97086.16;;;-7.25;54.67
49943;BME280;36011;53.362;58.948;2023-01-28T03:45:49;97087.88;;;-7.26;54.83
49943;BME280;36011;53.362;58.948;2023-01-28T03:48:52;97091.50;;;-6.99;54.65
49943;BME280;36011;53.362;58.948;2023-01-28T03:51:55;97113.59;;;-7.10;54.84
49943;BME280;36011;53.362;58.948;2023-01-28T03:54:58;97097.47;;;-6.97;54.29
49943;BME280;36011;53.362;58.948;2023-01-28T03:58:02;97100.06;;;-6.92;54.46
49943;BME280;36011;53.362;58.948;2023-01-28T04:01:07;97107.66;;;-7.06;54.47
49943;BME280;36011;53.362;58.948;2023-01-28T04:04:10;97100.06;;;-6.91;53.79
49943;BME280;36011;53.362;58.948;2023-01-28T04:07:24;97094.97;;;-6.92;53.67
49943;BME280;36011;53.362;58.948;2023-01-28T04:10:28;97104.47;;;-6.71;53.64
49943;BME280;36011;53.362;58.948;2023-01-28T04:13:32;97085.78;;;-6.61;53.34
49943;BME280;36011;53.362;58.948;2023-01-28T04:16:36;97090.78;;;-6.80;53.32
49943;BME280;36011;53.362;58.948;2023-01-28T04:19:40;97088.19;;;-6.84;53.44
49943;BME280;36011;53.362;58.948;2023-01-28T04:22:47;97097.50;;;-6.95;53.76
49943;BME280;36011;53.362;58.948;2023-01-28T04:25:50;97097.47;;;-6.97;54.56
49943;BME280;36011;53.362;58.948;2023-01-28T04:28:53;97092.50;;;-6.74;54.13
49943;BME280;36011;53.362;58.948;2023-01-28T04:31:56;97089.06;;;-6.81;53.72
49943;BME280;36011;53.362;58.948;2023-01-28T04:34:59;97101.19;;;-6.49;53.76
49943;BME280;36011;53.362;58.948;2023-01-28T04:38:02;97103.78;;;-6.43;53.50
49943;BME280;36011;53.362;58.948;2023-01-28T04:41:06;97097.03;;;-6.30;53.00
49943;BME280;36011;53.362;58.948;2023-01-28T04:44:10;97108.16;;;-6.20;53.20
49943;BME280;36011;53.362;58.948;2023-01-28T04:47:13;97106.59;;;-5.94;52.65
49943;BME280;36011;53.362;58.948;2023-01-28T04:50:16;97094.66;;;-5.73;51.95
49943;BME280;36011;53.362;58.948;2023-01-28T04:53:18;97099.78;;;-5.76;51.57
49943;BME280;36011;53.362;58.948;2023-01-28T04:56:21;97099.78;;;-5.67;51.03
49943;BME280;36011;53.362;58.948;2023-01-28T04:59:24;97111.81;;;-5.38;50.32
49943;BME280;36011;53.362;58.948;2023-01-28T05:02:28;97113.50;;;-5.47;50.39
49943;BME280;36011;53.362;58.948;2023-01-28T05:05:32;97121.25;;;-5.19;49.67
49943;BME280;36011;53.362;58.948;2023-01-28T05:08:36;97117.00;;;-4.92;49.10
49943;BME280;36011;53.362;58.948;2023-01-28T05:11:40;97123.81;;;-4.73;48.24
49943;BME280;36011;53.362;58.948;2023-01-28T05:14:43;97112.72;;;-4.78;47.96
49943;BME280;36011;53.362;58.948;2023-01-28T05:17:46;97117.81;;;-4.69;48.10
49943;BME280;36011;53.362;58.948;2023-01-28T05:20:49;97127.25;;;-4.77;48.44
49943;BME280;36011;53.362;58.948;2023-01-28T05:23:52;97111.81;;;-4.62;47.83
49943;BME280;36011;53.362;58.948;2023-01-28T05:26:55;97119.53;;;-4.65;47.54
49943;BME280;36011;53.362;58.948;2023-01-28T05:29:58;97115.25;;;-4.69;48.06
49943;BME280;36011;53.362;58.948;2023-01-28T05:33:02;97120.38;;;-4.63;47.67
49943;BME280;36011;53.362;58.948;2023-01-28T05:36:05;97120.38;;;-4.81;48.01
49943;BME280;36011;53.362;58.948;2023-01-28T05:39:08;97125.53;;;-4.75;48.13
49943;BME280;36011;53.362;58.948;2023-01-28T05:42:36;97128.91;;;-4.56;48.30
49943;BME280;36011;53.362;58.948;2023-01-28T05:45:44;97131.47;;;-4.53;47.70
49943;BME280;36011;53.362;58.948;2023-01-28T05:48:47;97134.09;;;-4.67;48.02
49943;BME280;36011;53.362;58.948;2023-01-28T05:51:51;97139.22;;;-4.71;48.29
49943;BME280;36011;53.362;58.948;2023-01-28T05:54:54;97137.50;;;-4.56;47.94
49943;BME280;36011;53.362;58.948;2023-01-28T05:57:57;97146.91;;;-4.41;47.67
49943;BME280;36011;53.362;58.948;2023-01-28T06:01:00;97140.91;;;-4.41;47.65
49943;BME280;36011;53.362;58.948;2023-01-28T06:04:03;97145.94;;;-3.98;46.81
49943;BME280;36011;53.362;58.948;2023-01-28T06:07:07;97133.81;;;-3.69;45.78
49943;BME280;36011;53.362;58.948;2023-01-28T06:10:11;97137.16;;;-3.51;45.59
49943;BME280;36011;53.362;58.948;2023-01-28T06:13:14;97141.34;;;-3.30;44.45
49943;BME280;36011;53.362;58.948;2023-01-28T06:16:18;97132.69;;;-3.19;44.04
49943;BME280;36011;53.362;58.948;2023-01-28T06:19:22;97142.66;;;-2.76;43.87
49943;BME280;36011;53.362;58.948;2023-01-28T06:22:26;97143.34;;;-2.55;42.82
49943;BME280;36011;53.362;58.948;2023-01-28T06:25:29;97122.91;;;-2.74;43.23
49943;BME280;36011;53.362;58.948;2023-01-28T06:28:32;97132.38;;;-2.77;43.40
49943;BME280;36011;53.362;58.948;2023-01-28T06:31:37;97131.63;;;-2.93;43.42
49943;BME280;36011;53.362;58.948;2023-01-28T06:34:40;97130.81;;;-2.98;43.61
49943;BME280;36011;53.362;58.948;2023-01-28T06:37:43;97133.25;;;-2.80;43.24
49943;BME280;36011;53.362;58.948;2023-01-28T06:40:52;97139.06;;;-2.58;43.24
49943;BME280;36011;53.362;58.948;2023-01-28T06:43:57;97146.09;;;-1.86;42.03
49943;BME280;36011;53.362;58.948;2023-01-28T06:47:01;97147.59;;;-0.49;40.57
49943;BME280;36011;53.362;58.948;2023-01-28T06:50:04;97152.81;;;2.25;35.80
49943;BME280;36011;53.362;58.948;2023-01-28T06:53:06;97154.31;;;5.20;33.45
49943;BME280;36011;53.362;58.948;2023-01-28T06:56:09;97167.66;;;7.74;30.38
49943;BME280;36011;53.362;58.948;2023-01-28T06:59:13;97163.38;;;8.75;27.19
49943;BME280;36011;53.362;58.948;2023-01-28T07:02:15;97164.94;;;9.75;27.17
49943;BME280;36011;53.362;58.948;2023-01-28T07:05:18;97176.25;;;11.37;25.58
49943;BME280;36011;53.362;58.948;2023-01-28T07:08:21;97169.09;;;12.86;23.87
49943;BME280;36011;53.362;58.948;2023-01-28T07:11:24;97175.78;;;14.02;23.10
49943;BME280;36011;53.362;58.948;2023-01-28T07:14:27;97167.38;;;13.73;21.96
49943;BME280;36011;53.362;58.948;2023-01-28T07:17:30;97169.19;;;14.67;22.08
49943;BME280;36011;53.362;58.948;2023-01-28T07:20:32;97171.00;;;16.86;19.95
49943;BME280;36011;53.362;58.948;2023-01-28T07:23:35;97159.94;;;17.51;19.48
49943;BME280;36011;53.362;58.948;2023-01-28T07:26:38;97170.44;;;18.52;18.44
49943;BME280;36011;53.362;58.948;2023-01-28T07:29:42;97170.66;;;20.17;18.31
49943;BME280;36011;53.362;58.948;2023-01-28T07:32:51;97157.59;;;20.94;17.91
49943;BME280;36011;53.362;58.948;2023-01-28T07:35:55;97169.03;;;20.60;18.54
49943;BME280;36011;53.362;58.948;2023-01-28T07:38:58;97175.47;;;21.88;18.90
49943;BME280;36011;53.362;58.948;2023-01-28T07:42:02;97176.91;;;23.23;17.69
49943;BME280;36011;53.362;58.948;2023-01-28T07:45:06;97167.41;;;23.04;13.34
49943;BME280;36011;53.362;58.948;2023-01-28T07:48:09;97184.50;;;22.46;17.06
49943;BME280;36011;53.362;58.948;2023-01-28T07:51:13;97166.75;;;21.86;15.43
49943;BME280;36011;53.362;58.948;2023-01-28T07:54:18;97171.34;;;21.60;14.57
49943;BME280;36011;53.362;58.948;2023-01-28T07:57:21;97169.81;;;20.97;14.18
49943;BME280;36011;53.362;58.948;2023-01-28T08:00:26;97170.72;;;20.26;16.35
49943;BME280;36011;53.362;58.948;2023-01-28T08:03:29;97159.84;;;21.07;13.70
49943;BME280;36011;53.362;58.948;2023-01-28T08:06:33;97154.03;;;21.96;14.83
49943;BME280;36011;53.362;58.948;2023-01-28T08:09:38;97151.59;;;23.65;12.86
49943;BME280;36011;53.362;58.948;2023-01-28T08:12:55;97154.09;;;23.19;12.13
49943;BME280;36011;53.362;58.948;2023-01-28T08:15:57;97148.53;;;24.08;12.01
49943;BME280;36011;53.362;58.948;2023-01-28T08:19:01;97139.09;;;24.43;11.56
49943;BME280;36011;53.362;58.948;2023-01-28T08:22:06;97146.78;;;23.52;11.84
49943;BME280;36011;53.362;58.948;2023-01-28T08:25:08;97133.97;;;23.15;12.73
49943;BME280;36011;53.362;58.948;2023-01-28T08:28:12;97145.72;;;23.22;12.71
49943;BME280;36011;53.362;58.948;2023-01-28T08:31:17;97138.84;;;23.59;12.21
49943;BME280;36011;53.362;58.948;2023-01-28T08:34:19;97143.53;;;23.65;11.71
49943;BME280;36011;53.362;58.948;2023-01-28T08:37:23;97129.06;;;23.66;11.78
49943;BME280;36011;53.362;58.948;2023-01-28T08:40:28;97133.78;;;24.04;12.24
49943;BME280;36011;53.362;58.948;2023-01-28T08:43:30;97142.59;;;24.67;11.95
49943;BME280;36011;53.362;58.948;2023-01-28T08:46:33;97128.34;;;25.10;12.24
49943;BME280;36011;53.362;58.948;2023-01-28T08:49:36;97125.72;;;24.73;11.41
49943;BME280;36011;53.362;58.948;2023-01-28T08:52:39;97125.13;;;24.16;11.21
49943;BME280;36011;53.362;58.948;2023-01-28T08:55:44;97131.81;;;23.58;11.26
49943;BME280;36011;53.362;58.948;2023-01-28T08:58:46;97123.94;;;23.01;11.35
49943;BME280;36011;53.362;58.948;2023-01-28T09:01:49;97127.00;;;22.32;12.43
49943;BME280;36011;53.362;58.948;2023-01-28T09:04:52;97122.31;;;22.34;11.81
49943;BME280;36011;53.362;58.948;2023-01-28T09:07:55;97131.72;;;21.29;12.77
49943;BME280;36011;53.362;58.948;2023-01-28T09:10:59;97130.13;;;22.03;12.12
49943;BME280;36011;53.362;58.948;2023-01-28T09:14:03;97121.72;;;21.39;12.13
49943;BME280;36011;53.362;58.948;2023-01-28T09:17:07;97143.81;;;21.07;12.92
49943;BME280;36011;53.362;58.948;2023-01-28T09:20:09;97121.47;;;21.59;12.12
49943;BME280;36011;53.362;58.948;2023-01-28T09:23:13;97138.66;;;22.07;12.16
49943;BME280;36011;53.362;58.948;2023-01-28T09:26:16;97134.19;;;21.57;12.52
49943;BME280;36011;53.362;58.948;2023-01-28T09:29:18;97130.88;;;21.71;12.65
49943;BME280;36011;53.362;58.948;2023-01-28T09:32:39;97130.63;;;21.48;12.37
49943;BME280;36011;53.362;58.948;2023-01-28T09:35:43;97124.25;;;21.06;12.63
49943;BME280;36011;53.362;58.948;2023-01-28T09:38:46;97121.34;;;21.34;12.62
49943;BME280;36011;53.362;58.948;2023-01-28T09:48:15;97111.59;;;18.06;14.04
49943;BME280;36011;53.362;58.948;2023-01-28T09:51:40;97115.53;;;17.52;14.19
49943;BME280;36011;53.362;58.948;2023-01-28T09:54:48;97117.47;;;17.40;14.54
49943;BME280;36011;53.362;58.948;2023-01-28T09:57:52;97104.06;;;17.42;14.63
49943;BME280;36011;53.362;58.948;2023-01-28T10:01:14;97115.63;;;17.81;14.22
49943;BME280;36011;53.362;58.948;2023-01-28T10:07:44;97115.00;;;14.71;16.04
49943;BME280;36011;53.362;58.948;2023-01-28T10:10:49;97114.56;;;13.11;17.41
49943;BME280;36011;53.362;58.948;2023-01-28T10:17:26;97122.78;;;14.15;16.76
49943;BME280;36011;53.362;58.948;2023-01-28T10:20:32;97127.91;;;14.98;15.95
49943;BME280;36011;53.362;58.948;2023-01-28T10:26:59;97127.72;;;14.55;16.35
49943;BME280;36011;53.362;58.948;2023-01-28T10:30:19;97133.28;;;14.63;16.49
49943;BME280;36011;53.362;58.948;2023-01-28T10:36:29;97142.09;;;15.20;16.18
49943;BME280;36011;53.362;58.948;2023-01-28T10:39:32;97148.66;;;16.14;15.58
49943;BME280;36011;53.362;58.948;2023-01-28T10:42:36;97139.94;;;16.44;15.52
49943;BME280;36011;53.362;58.948;2023-01-28T10:45:41;97134.59;;;16.02;15.76
49943;BME280;36011;53.362;58.948;2023-01-28T10:51:55;97128.44;;;11.02;19.38
49943;BME280;36011;53.362;58.948;2023-01-28T10:55:00;97118.81;;;7.90;22.19
49943;BME280;36011;53.362;58.948;2023-01-28T10:58:05;97125.66;;;5.40;24.73
49943;BME280;36011;53.362;58.948;2023-01-28T11:01:19;97112.84;;;3.96;27.37
49943;BME280;36011;53.362;58.948;2023-01-28T11:07:25;97121.53;;;2.59;28.16
49943;BME280;36011;53.362;58.948;2023-01-28T11:10:33;97116.91;;;2.08;28.35
49943;BME280;36011;53.362;58.948;2023-01-28T11:13:39;97123.94;;;1.72;29.41
49943;BME280;36011;53.362;58.948;2023-01-28T11:16:51;97125.25;;;1.18;30.71
49943;BME280;36011;53.362;58.948;2023-01-28T11:19:55;97122.63;;;0.82;30.98
49943;BME280;36011;53.362;58.948;2023-01-28T11:22:59;97122.69;;;0.39;32.44
49943;BME280;36011;53.362;58.948;2023-01-28T11:26:06;97134.50;;;0.09;32.09
49943;BME280;36011;53.362;58.948;2023-01-28T11:32:29;97126.47;;;-0.24;34.29
49943;BME280;36011;53.362;58.948;2023-01-28T11:35:33;97130.38;;;-0.50;33.83
49943;BME280;36011;53.362;58.948;2023-01-28T11:38:45;97132.44;;;-0.70;34.70
49943;BME280;36011;53.362;58.948;2023-01-28T11:41:48;97135.19;;;-0.81;33.80
49943;BME280;36011;53.362;58.948;2023-01-28T11:44:51;97145.00;;;-0.47;35.52
49943;BME280;36011;53.362;58.948;2023-01-28T11:48:04;97138.28;;;0.36;34.45
49943;BME280;36011;53.362;58.948;2023-01-28T12:10:32;97133.78;;;-1.65;34.12
49943;BME280;36011;53.362;58.948;2023-01-28T12:20:11;97133.72;;;-2.35;37.50
49943;BME280;36011;53.362;58.948;2023-01-28T12:26:45;97126.31;;;-2.75;39.11
49943;BME280;36011;53.362;58.948;2023-01-28T12:29:46;97117.19;;;-3.11;39.30
49943;BME280;36011;53.362;58.948;2023-01-28T12:36:23;97113.84;;;-3.24;42.62
49943;BME280;36011;53.362;58.948;2023-01-28T12:42:41;97089.25;;;-3.71;43.32
49943;BME280;36011;53.362;58.948;2023-01-28T12:45:48;97099.50;;;-3.65;45.09
49943;BME280;36011;53.362;58.948;2023-01-28T12:49:40;97101.50;;;-4.36;45.29
49943;BME280;36011;53.362;58.948;2023-01-28T12:52:31;97101.44;;;-4.17;46.54
49943;BME280;36011;53.362;58.948;2023-01-28T12:55:40;97104.13;;;-4.60;46.15
49943;BME280;36011;53.362;58.948;2023-01-28T12:58:56;97118.69;;;-4.85;46.09
49943;BME280;36011;53.362;58.948;2023-01-28T13:05:23;97116.13;;;-5.01;45.28
49943;BME280;36011;53.362;58.948;2023-01-28T13:08:29;97116.97;;;-4.77;47.03
49943;BME280;36011;53.362;58.948;2023-01-28T13:11:33;97108.41;;;-5.16;46.94
49943;BME280;36011;53.362;58.948;2023-01-28T13:14:37;97095.56;;;-5.30;47.19
49943;BME280;36011;53.362;58.948;2023-01-28T13:17:52;97084.47;;;-5.23;49.23
49943;BME280;36011;53.362;58.948;2023-01-28T13:20:55;97112.63;;;-5.55;48.60
49943;BME280;36011;53.362;58.948;2023-01-28T13:27:20;97118.59;;;-5.62;49.77
49943;BME280;36011;53.362;58.948;2023-01-28T13:33:31;97134.75;;;-5.98;48.59
49943;BME280;36011;53.362;58.948;2023-01-28T13:36:47;97124.47;;;-6.01;49.13
49943;BME280;36011;53.362;58.948;2023-01-28T13:39:51;97127.06;;;-5.91;49.94
49943;BME280;36011;53.362;58.948;2023-01-28T13:42:59;97131.31;;;-6.05;49.35
49943;BME280;36011;53.362;58.948;2023-01-28T13:46:14;97130.38;;;-6.19;49.79
49943;BME280;36011;53.362;58.948;2023-01-28T13:52:49;97132.84;;;-6.38;50.70
49943;BME280;36011;53.362;58.948;2023-01-28T13:55:54;97143.84;;;-6.52;49.40
49943;BME280;36011;53.362;58.948;2023-01-28T14:05:44;97139.47;;;-6.69;50.24
49943;BME280;36011;53.362;58.948;2023-01-28T14:18:47;97135.03;;;-6.96;50.89
49943;BME280;36011;53.362;58.948;2023-01-28T14:21:50;97143.53;;;-6.98;49.93
49943;BME280;36011;53.362;58.948;2023-01-28T14:24:53;97145.16;;;-7.05;50.39
49943;BME280;36011;53.362;58.948;2023-01-28T14:27:58;97139.19;;;-7.07;50.44
49943;BME280;36011;53.362;58.948;2023-01-28T14:31:04;97142.56;;;-7.13;50.75
49943;BME280;36011;53.362;58.948;2023-01-28T14:34:10;97151.06;;;-7.12;50.50
49943;BME280;36011;53.362;58.948;2023-01-28T14:37:17;97156.97;;;-7.16;49.92
49943;BME280;36011;53.362;58.948;2023-01-28T14:40:22;97145.91;;;-7.18;49.92
49943;BME280;36011;53.362;58.948;2023-01-28T14:43:25;97150.16;;;-7.17;50.25
49943;BME280;36011;53.362;58.948;2023-01-28T14:46:34;97156.25;;;-7.03;50.81
49943;BME280;36011;53.362;58.948;2023-01-28T14:54:08;97166.81;;;-7.56;51.14
49943;BME280;36011;53.362;58.948;2023-01-28T14:57:01;97164.06;;;-7.75;51.50
49943;BME280;36011;53.362;58.948;2023-01-28T15:00:23;97151.25;;;-7.81;51.41
49943;BME280;36011;53.362;58.948;2023-01-28T15:03:25;97152.97;;;-7.77;50.77
49943;BME280;36011;53.362;58.948;2023-01-28T15:06:33;97161.47;;;-7.81;51.61
49943;BME280;36011;53.362;58.948;2023-01-28T15:09:40;97163.09;;;-7.86;51.61
49943;BME280;36011;53.362;58.948;2023-01-28T15:12:51;97165.59;;;-7.91;51.54
49943;BME280;36011;53.362;58.948;2023-01-28T15:15:58;97172.31;;;-7.97;51.79
49943;BME280;36011;53.362;58.948;2023-01-28T15:19:04;97173.91;;;-8.04;51.68
49943;BME280;36011;53.362;58.948;2023-01-28T15:22:12;97179.16;;;-7.95;51.69
49943;BME280;36011;53.362;58.948;2023-01-28T15:25:23;97180.91;;;-7.92;51.17
49943;BME280;36011;53.362;58.948;2023-01-28T15:28:34;97175.75;;;-7.94;51.44
49943;BME280;36011;53.362;58.948;2023-01-28T15:31:36;97171.69;;;-7.81;52.10
49943;BME280;36011;53.362;58.948;2023-01-28T15:34:45;97176.69;;;-7.87;52.28
49943;BME280;36011;53.362;58.948;2023-01-28T15:37:46;97178.22;;;-8.03;52.05
49943;BME280;36011;53.362;58.948;2023-01-28T15:40:52;97188.25;;;-8.17;52.74
49943;BME280;36011;53.362;58.948;2023-01-28T15:43:54;97188.94;;;-8.27;52.18
49943;BME280;36011;53.362;58.948;2023-01-28T15:46:56;97178.66;;;-8.34;52.14
49943;BME280;36011;53.362;58.948;2023-01-28T15:50:02;97183.72;;;-8.38;52.43
49943;BME280;36011;53.362;58.948;2023-01-28T15:53:08;97187.19;;;-8.31;52.39
49943;BME280;36011;53.362;58.948;2023-01-28T15:56:13;97187.28;;;-8.25;52.49
49943;BME280;36011;53.362;58.948;2023-01-28T15:59:28;97183.13;;;-8.17;52.09
49943;BME280;36011;53.362;58.948;2023-01-28T16:02:31;97193.47;;;-8.07;52.11
49943;BME280;36011;53.362;58.948;2023-01-28T16:05:35;97198.75;;;-7.95;51.78
49943;BME280;36011;53.362;58.948;2023-01-28T16:12:00;97198.19;;;-7.71;51.60
49943;BME280;36011;53.362;58.948;2023-01-28T16:15:04;97194.03;;;-7.60;50.93
49943;BME280;36011;53.362;58.948;2023-01-28T16:18:06;97193.28;;;-7.53;51.31
49943;BME280;36011;53.362;58.948;2023-01-28T16:21:08;97194.13;;;-7.51;51.60
49943;BME280;36011;53.362;58.948;2023-01-28T16:24:25;97200.16;;;-7.46;50.92
49943;BME280;36011;53.362;58.948;2023-01-28T16:27:29;97206.91;;;-7.51;50.97
49943;BME280;36011;53.362;58.948;2023-01-28T16:30:38;97207.56;;;-7.69;51.80
49943;BME280;36011;53.362;58.948;2023-01-28T16:33:42;97209.13;;;-7.80;52.03
49943;BME280;36011;53.362;58.948;2023-01-28T16:36:54;97206.47;;;-7.89;51.77
49943;BME280;36011;53.362;58.948;2023-01-28T16:39:59;97214.91;;;-7.93;52.74
49943;BME280;36011;53.362;58.948;2023-01-28T16:43:00;97215.84;;;-7.88;52.73
49943;BME280;36011;53.362;58.948;2023-01-28T16:46:02;97209.19;;;-7.77;52.42
49943;BME280;36011;53.362;58.948;2023-01-28T16:49:08;97215.31;;;-7.62;53.22
49943;BME280;36011;53.362;58.948;2023-01-28T16:52:14;97218.06;;;-7.47;52.26
49943;BME280;36011;53.362;58.948;2023-01-28T16:55:18;97213.03;;;-7.38;51.71
49943;BME280;36011;53.362;58.948;2023-01-28T16:58:22;97215.63;;;-7.35;51.98
49943;BME280;36011;53.362;58.948;2023-01-28T17:01:24;97216.47;;;-7.34;52.47
49943;BME280;36011;53.362;58.948;2023-01-28T17:04:27;97219.09;;;-7.30;52.79
49943;BME280;36011;53.362;58.948;2023-01-28T17:07:31;97225.06;;;-7.28;51.02
49943;BME280;36011;53.362;58.948;2023-01-28T17:10:37;97219.09;;;-7.28;51.38
49943;BME280;36011;53.362;58.948;2023-01-28T17:13:40;97221.69;;;-7.27;51.63
49943;BME280;36011;53.362;58.948;2023-01-28T17:16:44;97216.63;;;-7.19;51.15
49943;BME280;36011;53.362;58.948;2023-01-28T17:19:50;97213.34;;;-7.07;50.71
49943;BME280;36011;53.362;58.948;2023-01-28T17:22:53;97221.97;;;-6.99;50.51
49943;BME280;36011;53.362;58.948;2023-01-28T17:26:01;97232.28;;;-6.90;50.57
49943;BME280;36011;53.362;58.948;2023-01-28T17:29:08;97228.88;;;-6.86;50.28
49943;BME280;36011;53.362;58.948;2023-01-28T17:32:09;97234.00;;;-6.86;50.47
49943;BME280;36011;53.362;58.948;2023-01-28T17:35:12;97231.47;;;-6.84;50.67
49943;BME280;36011;53.362;58.948;2023-01-28T17:38:18;97230.66;;;-6.79;50.32
49943;BME280;36011;53.362;58.948;2023-01-28T17:41:22;97228.09;;;-6.77;50.51
49943;BME280;36011;53.362;58.948;2023-01-28T17:44:23;97233.28;;;-6.71;49.92
49943;BME280;36011;53.362;58.948;2023-01-28T17:47:27;97220.56;;;-6.63;50.65
49943;BME280;36011;53.362;58.948;2023-01-28T17:50:34;97225.72;;;-6.57;50.31
49943;BME280;36011;53.362;58.948;2023-01-28T17:53:44;97225.75;;;-6.54;50.38
49943;BME280;36011;53.362;58.948;2023-01-28T17:56:50;97220.69;;;-6.48;50.90
49943;BME280;36011;53.362;58.948;2023-01-28T17:59:56;97221.56;;;-6.41;50.74
49943;BME280;36011;53.362;58.948;2023-01-28T18:02:57;97224.19;;;-6.34;50.78
49943;BME280;36011;53.362;58.948;2023-01-28T18:06:00;97224.22;;;-6.30;50.28
49943;BME280;36011;53.362;58.948;2023-01-28T18:09:05;97219.13;;;-6.27;49.99
49943;BME280;36011;53.362;58.948;2023-01-28T18:12:10;97222.50;;;-6.32;50.26